sensor_id;sensor_type;location;lat;lon;timestamp;pressure;altitude;pressure_sealevel;temperature;humidity
12471;BME280;36499;46.484;13.832;2023-10-19T00:01:25;92413.94;;;6.31;90.45
12471;BME280;36499;46.484;13.832;2023-10-19T00:03:52;92409.47;;;6.47;89.66
12471;BME280;36499;46.484;13.832;2023-10-19T00:06:21;92407.06;;;6.23;89.63
12471;BME280;36499;46.484;13.832;2023-10-19T00:08:48;92404.19;;;6.18;90.02
12471;BME280;36499;46.484;13.832;2023-10-19T00:11:16;92405.97;;;6.17;91.03
12471;BME280;36499;46.484;13.832;2023-10-19T00:13:47;92405.19;;;6.17;90.54
12471;BME280;36499;46.484;13.832;2023-10-19T00:16:16;92413.00;;;6.09;91.14
12471;BME280;36499;46.484;13.832;2023-10-19T00:18:42;92404.75;;;6.13;91.34
12471;BME280;36499;46.484;13.832;2023-10-19T00:21:10;92400.47;;;6.20;91.17
12471;BME280;36499;46.484;13.832;2023-10-19T00:23:45;92409.00;;;6.21;91.54
12471;BME280;36499;46.484;13.832;2023-10-19T00:26:14;92393.66;;;6.27;91.43
12471;BME280;36499;46.484;13.832;2023-10-19T00:28:43;92376.31;;;6.36;91.11
12471;BME280;36499;46.484;13.832;2023-10-19T00:31:11;92381.94;;;6.40;90.83
12471;BME280;36499;46.484;13.832;2023-10-19T00:33:38;92392.66;;;6.28;91.35
12471;BME280;36499;46.484;13.832;2023-10-19T00:36:06;92373.56;;;6.38;90.88
12471;BME280;36499;46.484;13.832;2023-10-19T00:38:35;92366.47;;;6.40;90.63
12471;BME280;36499;46.484;13.832;2023-10-19T00:41:13;92368.53;;;6.21;90.85
12471;BME280;36499;46.484;13.832;2023-10-19T00:43:45;92355.00;;;6.42;90.68
12471;BME280;36499;46.484;13.832;2023-10-19T00:46:16;92364.56;;;6.34;91.04
12471;BME280;36499;46.484;13.832;2023-10-19T00:48:48;92346.63;;;6.40;91.03
12471;BME280;36499;46.484;13.832;2023-10-19T00:51:17;92336.81;;;6.36;91.04
12471;BME280;36499;46.484;13.832;2023-10-19T00:54:07;92356.63;;;6.20;91.40
12471;BME280;36499;46.484;13.832;2023-10-19T00:56:36;92325.66;;;6.20;91.56
12471;BME280;36499;46.484;13.832;2023-10-19T00:59:06;92334.75;;;6.16;92.13
12471;BME280;36499;46.484;13.832;2023-10-19T01:01:40;92332.34;;;6.30;91.86
12471;BME280;36499;46.484;13.832;2023-10-19T01:04:09;92339.44;;;6.13;92.04
12471;BME280;36499;46.484;13.832;2023-10-19T01:06:39;92334.13;;;6.14;92.24
12471;BME280;36499;46.484;13.832;2023-10-19T01:09:10;92321.16;;;6.37;92.11
12471;BME280;36499;46.484;13.832;2023-10-19T01:11:40;92328.53;;;6.25;92.74
12471;BME280;36499;46.484;13.832;2023-10-19T01:14:20;92328.59;;;6.55;91.90
12471;BME280;36499;46.484;13.832;2023-10-19T01:16:48;92321.78;;;6.39;91.94
12471;BME280;36499;46.484;13.832;2023-10-19T01:19:16;92322.13;;;6.36;92.04
12471;BME280;36499;46.484;13.832;2023-10-19T01:21:44;92330.94;;;6.27;92.82
12471;BME280;36499;46.484;13.832;2023-10-19T01:24:18;92301.16;;;6.54;92.28
12471;BME280;36499;46.484;13.832;2023-10-19T01:26:49;92288.78;;;6.49;91.89
12471;BME280;36499;46.484;13.832;2023-10-19T01:29:19;92291.66;;;6.69;91.63
12471;BME280;36499;46.484;13.832;2023-10-19T01:31:52;92275.00;;;6.72;91.42
12471;BME280;36499;46.484;13.832;2023-10-19T01:34:21;92293.78;;;6.51;91.79
12471;BME280;36499;46.484;13.832;2023-10-19T01:36:48;92272.88;;;6.60;91.75
12471;BME280;36499;46.484;13.832;2023-10-19T01:39:17;92279.88;;;6.52;91.39
12471;BME280;36499;46.484;13.832;2023-10-19T01:41:44;92291.94;;;6.22;92.33
12471;BME280;36499;46.484;13.832;2023-10-19T01:44:11;92282.72;;;6.27;92.92
12471;BME280;36499;46.484;13.832;2023-10-19T01:46:39;92266.25;;;6.28;93.65
12471;BME280;36499;46.484;13.832;2023-10-19T01:49:09;92267.84;;;6.30;93.31
12471;BME280;36499;46.484;13.832;2023-10-19T01:51:35;92254.63;;;6.62;93.58
12471;BME280;36499;46.484;13.832;2023-10-19T01:54:04;92256.41;;;6.62;93.63
12471;BME280;36499;46.484;13.832;2023-10-19T01:56:32;92248.56;;;6.70;93.28
12471;BME280;36499;46.484;13.832;2023-10-19T01:59:01;92245.44;;;6.74;93.02
12471;BME280;36499;46.484;13.832;2023-10-19T02:01:27;92248.06;;;6.96;91.40
12471;BME280;36499;46.484;13.832;2023-10-19T02:03:59;92247.06;;;6.75;91.78
12471;BME280;36499;46.484;13.832;2023-10-19T02:06:26;92242.59;;;6.69;92.01
12471;BME280;36499;46.484;13.832;2023-10-19T02:08:58;92230.06;;;6.66;92.51
12471;BME280;36499;46.484;13.832;2023-10-19T02:11:26;92222.41;;;6.58;92.78
12471;BME280;36499;46.484;13.832;2023-10-19T02:13:56;92232.00;;;6.64;92.58
12471;BME280;36499;46.484;13.832;2023-10-19T02:16:26;92236.09;;;6.58;92.81
12471;BME280;36499;46.484;13.832;2023-10-19T02:18:55;92239.31;;;6.60;92.89
12471;BME280;36499;46.484;13.832;2023-10-19T02:21:21;92231.03;;;6.50;92.74
12471;BME280;36499;46.484;13.832;2023-10-19T02:23:49;92233.78;;;6.49;93.54
12471;BME280;36499;46.484;13.832;2023-10-19T02:26:16;92249.63;;;6.60;93.49
12471;BME280;36499;46.484;13.832;2023-10-19T02:28:45;92233.00;;;6.63;93.35
12471;BME280;36499;46.484;13.832;2023-10-19T02:31:12;92236.81;;;6.67;93.89
12471;BME280;36499;46.484;13.832;2023-10-19T02:33:44;92241.31;;;6.94;93.20
12471;BME280;36499;46.484;13.832;2023-10-19T02:36:13;92222.34;;;6.87;92.98
12471;BME280;36499;46.484;13.832;2023-10-19T02:38:41;92223.84;;;6.97;92.96
12471;BME280;36499;46.484;13.832;2023-10-19T02:41:09;92218.59;;;6.90;92.65
12471;BME280;36499;46.484;13.832;2023-10-19T02:43:37;92226.53;;;6.88;92.82
12471;BME280;36499;46.484;13.832;2023-10-19T02:46:03;92221.06;;;6.77;92.31
12471;BME280;36499;46.484;13.832;2023-10-19T02:48:31;92215.09;;;6.76;92.85
12471;BME280;36499;46.484;13.832;2023-10-19T02:50:57;92206.38;;;6.99;92.84
12471;BME280;36499;46.484;13.832;2023-10-19T02:53:32;92203.53;;;6.93;92.89
12471;BME280;36499;46.484;13.832;2023-10-19T02:55:58;92196.53;;;6.87;93.55
12471;BME280;36499;46.484;13.832;2023-10-19T02:58:27;92214.84;;;6.92;93.12
12471;BME280;36499;46.484;13.832;2023-10-19T03:00:53;92194.34;;;6.84;93.32
12471;BME280;36499;46.484;13.832;2023-10-19T03:03:20;92203.84;;;6.84;93.58
12471;BME280;36499;46.484;13.832;2023-10-19T03:05:48;92199.94;;;7.09;92.89
12471;BME280;36499;46.484;13.832;2023-10-19T03:08:16;92198.63;;;6.99;93.16
12471;BME280;36499;46.484;13.832;2023-10-19T03:10:44;92201.13;;;7.07;92.99
12471;BME280;36499;46.484;13.832;2023-10-19T03:13:10;92193.63;;;7.12;92.51
12471;BME280;36499;46.484;13.832;2023-10-19T03:15:39;92192.56;;;7.06;92.84
12471;BME280;36499;46.484;13.832;2023-10-19T03:18:08;92200.38;;;7.13;93.05
12471;BME280;36499;46.484;13.832;2023-10-19T03:20:37;92198.91;;;7.04;92.96
12471;BME280;36499;46.484;13.832;2023-10-19T03:23:04;92190.84;;;7.13;92.83
12471;BME280;36499;46.484;13.832;2023-10-19T03:25:31;92179.28;;;7.31;92.76
12471;BME280;36499;46.484;13.832;2023-10-19T03:28:29;92187.56;;;7.26;92.14
12471;BME280;36499;46.484;13.832;2023-10-19T03:31:00;92174.38;;;7.14;92.63
12471;BME280;36499;46.484;13.832;2023-10-19T03:33:27;92157.94;;;7.01;93.15
12471;BME280;36499;46.484;13.832;2023-10-19T03:35:54;92176.88;;;7.08;92.87
12471;BME280;36499;46.484;13.832;2023-10-19T03:38:21;92151.38;;;7.19;93.01
12471;BME280;36499;46.484;13.832;2023-10-19T03:40:49;92140.28;;;7.04;93.30
12471;BME280;36499;46.484;13.832;2023-10-19T03:43:24;92159.91;;;6.99;93.80
12471;BME280;36499;46.484;13.832;2023-10-19T03:45:52;92161.16;;;6.88;93.97
12471;BME280;36499;46.484;13.832;2023-10-19T03:48:20;92142.19;;;6.96;94.55
12471;BME280;36499;46.484;13.832;2023-10-19T03:50:52;92147.09;;;6.90;94.47
12471;BME280;36499;46.484;13.832;2023-10-19T03:53:22;92135.84;;;6.98;95.01
12471;BME280;36499;46.484;13.832;2023-10-19T03:55:49;92140.63;;;7.22;94.62
12471;BME280;36499;46.484;13.832;2023-10-19T03:58:18;92144.91;;;7.09;94.64
12471;BME280;36499;46.484;13.832;2023-10-19T04:00:46;92119.88;;;7.09;94.48
12471;BME280;36499;46.484;13.832;2023-10-19T04:03:14;92122.00;;;7.27;94.64
12471;BME280;36499;46.484;13.832;2023-10-19T04:05:42;92122.44;;;7.09;94.68
12471;BME280;36499;46.484;13.832;2023-10-19T04:08:12;92127.06;;;7.14;94.77
12471;BME280;36499;46.484;13.832;2023-10-19T04:10:41;92119.16;;;7.43;94.87
12471;BME280;36499;46.484;13.832;2023-10-19T04:13:13;92119.91;;;7.37;94.11
12471;BME280;36499;46.484;13.832;2023-10-19T04:15:39;92122.53;;;7.44;94.29
12471;BME280;36499;46.484;13.832;2023-10-19T04:18:07;92110.72;;;7.35;93.98
12471;BME280;36499;46.484;13.832;2023-10-19T04:20:35;92108.25;;;7.20;94.47
12471;BME280;36499;46.484;13.832;2023-10-19T04:23:08;92106.47;;;7.20;94.61
12471;BME280;36499;46.484;13.832;2023-10-19T04:25:36;92096.22;;;7.34;94.81
12471;BME280;36499;46.484;13.832;2023-10-19T04:28:05;92097.81;;;7.35;94.17
12471;BME280;36499;46.484;13.832;2023-10-19T04:30:31;92106.16;;;7.37;94.66
12471;BME280;36499;46.484;13.832;2023-10-19T04:33:02;92096.06;;;7.42;94.84
12471;BME280;36499;46.484;13.832;2023-10-19T04:35:34;92092.69;;;7.41;94.72
12471;BME280;36499;46.484;13.832;2023-10-19T04:38:03;92095.88;;;7.43;94.50
12471;BME280;36499;46.484;13.832;2023-10-19T04:40:31;92085.78;;;7.48;94.75
12471;BME280;36499;46.484;13.832;2023-10-19T04:43:00;92088.81;;;7.58;94.20
12471;BME280;36499;46.484;13.832;2023-10-19T04:45:30;92082.22;;;7.49;94.20
12471;BME280;36499;46.484;13.832;2023-10-19T04:47:57;92067.88;;;7.47;95.01
12471;BME280;36499;46.484;13.832;2023-10-19T04:50:24;92083.28;;;7.61;94.83
12471;BME280;36499;46.484;13.832;2023-10-19T04:52:50;92079.81;;;7.48;94.21
12471;BME280;36499;46.484;13.832;2023-10-19T04:55:17;92068.56;;;7.34;94.78
12471;BME280;36499;46.484;13.832;2023-10-19T04:57:44;92071.97;;;7.35;95.18
12471;BME280;36499;46.484;13.832;2023-10-19T05:00:11;92080.44;;;7.50;95.61
12471;BME280;36499;46.484;13.832;2023-10-19T05:02:40;92081.59;;;7.47;95.56
12471;BME280;36499;46.484;13.832;2023-10-19T05:05:06;92083.09;;;7.35;96.15
12471;BME280;36499;46.484;13.832;2023-10-19T05:07:33;92085.28;;;7.66;95.83
12471;BME280;36499;46.484;13.832;2023-10-19T05:09:59;92083.13;;;7.70;95.59
12471;BME280;36499;46.484;13.832;2023-10-19T05:12:27;92081.72;;;7.67;95.22
12471;BME280;36499;46.484;13.832;2023-10-19T05:14:54;92081.34;;;7.70;95.14
12471;BME280;36499;46.484;13.832;2023-10-19T05:17:20;92076.97;;;7.71;95.14
12471;BME280;36499;46.484;13.832;2023-10-19T05:19:50;92079.97;;;7.74;94.91
12471;BME280;36499;46.484;13.832;2023-10-19T05:22:16;92081.28;;;7.64;95.22
12471;BME280;36499;46.484;13.832;2023-10-19T05:24:43;92083.13;;;7.70;95.19
12471;BME280;36499;46.484;13.832;2023-10-19T05:27:10;92082.22;;;7.84;94.73
12471;BME280;36499;46.484;13.832;2023-10-19T05:29:36;92070.72;;;7.93;94.05
12471;BME280;36499;46.484;13.832;2023-10-19T05:32:05;92070.09;;;7.84;93.85
12471;BME280;36499;46.484;13.832;2023-10-19T05:34:32;92072.38;;;7.66;95.00
12471;BME280;36499;46.484;13.832;2023-10-19T05:37:02;92075.00;;;7.73;95.45
12471;BME280;36499;46.484;13.832;2023-10-19T05:39:30;92071.22;;;7.75;94.94
12471;BME280;36499;46.484;13.832;2023-10-19T05:41:59;92072.91;;;7.96;95.46
12471;BME280;36499;46.484;13.832;2023-10-19T05:44:25;92077.34;;;8.02;94.81
12471;BME280;36499;46.484;13.832;2023-10-19T05:46:52;92073.09;;;7.88;94.64
12471;BME280;36499;46.484;13.832;2023-10-19T05:49:20;92076.72;;;8.00;95.06
12471;BME280;36499;46.484;13.832;2023-10-19T05:51:46;92078.56;;;8.60;96.08
12471;BME280;36499;46.484;13.832;2023-10-19T05:54:14;92067.03;;;8.56;95.63
12471;BME280;36499;46.484;13.832;2023-10-19T05:56:42;92066.03;;;8.64;95.69
12471;BME280;36499;46.484;13.832;2023-10-19T05:59:09;92064.25;;;8.71;93.88
12471;BME280;36499;46.484;13.832;2023-10-19T06:01:36;92065.09;;;8.98;95.24
12471;BME280;36499;46.484;13.832;2023-10-19T06:04:03;92050.94;;;9.40;91.46
12471;BME280;36499;46.484;13.832;2023-10-19T06:06:30;92052.34;;;9.49;89.75
12471;BME280;36499;46.484;13.832;2023-10-19T06:08:57;92057.50;;;9.56;89.82
12471;BME280;36499;46.484;13.832;2023-10-19T06:11:28;92058.91;;;9.52;88.32
12471;BME280;36499;46.484;13.832;2023-10-19T06:13:57;92055.94;;;9.28;87.93
12471;BME280;36499;46.484;13.832;2023-10-19T06:16:24;92061.50;;;9.12;88.75
12471;BME280;36499;46.484;13.832;2023-10-19T06:18:51;92068.69;;;9.10;88.87
12471;BME280;36499;46.484;13.832;2023-10-19T06:21:17;92070.84;;;8.80;88.92
12471;BME280;36499;46.484;13.832;2023-10-19T06:23:45;92058.28;;;8.71;89.62
12471;BME280;36499;46.484;13.832;2023-10-19T06:26:12;92056.88;;;8.55;90.06
12471;BME280;36499;46.484;13.832;2023-10-19T06:28:40;92061.63;;;8.51;91.03
12471;BME280;36499;46.484;13.832;2023-10-19T06:31:06;92062.31;;;8.32;91.23
12471;BME280;36499;46.484;13.832;2023-10-19T06:33:33;92047.56;;;8.26;92.10
12471;BME280;36499;46.484;13.832;2023-10-19T06:36:01;92055.88;;;8.56;92.20
12471;BME280;36499;46.484;13.832;2023-10-19T06:38:28;92053.44;;;8.48;92.49
12471;BME280;36499;46.484;13.832;2023-10-19T06:40:56;92050.25;;;8.46;92.78
12471;BME280;36499;46.484;13.832;2023-10-19T06:43:24;92070.06;;;8.25;93.80
12471;BME280;36499;46.484;13.832;2023-10-19T06:45:55;92069.16;;;8.40;93.73
12471;BME280;36499;46.484;13.832;2023-10-19T06:48:21;92055.13;;;8.21;94.81
12471;BME280;36499;46.484;13.832;2023-10-19T06:50:48;92061.72;;;8.23;94.35
12471;BME280;36499;46.484;13.832;2023-10-19T06:53:15;92064.69;;;8.20;95.13
12471;BME280;36499;46.484;13.832;2023-10-19T06:55:41;92051.16;;;8.32;95.29
12471;BME280;36499;46.484;13.832;2023-10-19T06:58:08;92058.03;;;8.46;95.13
12471;BME280;36499;46.484;13.832;2023-10-19T07:00:36;92066.91;;;8.37;95.04
12471;BME280;36499;46.484;13.832;2023-10-19T07:03:09;92062.72;;;8.36;95.85
12471;BME280;36499;46.484;13.832;2023-10-19T07:05:35;92063.03;;;8.54;95.60
12471;BME280;36499;46.484;13.832;2023-10-19T07:08:02;92059.03;;;8.51;95.93
12471;BME280;36499;46.484;13.832;2023-10-19T07:10:32;92058.88;;;8.59;95.63
12471;BME280;36499;46.484;13.832;2023-10-19T07:13:00;92065.41;;;8.49;96.14
12471;BME280;36499;46.484;13.832;2023-10-19T07:15:27;92067.41;;;8.60;95.77
12471;BME280;36499;46.484;13.832;2023-10-19T07:17:55;92075.75;;;8.49;96.32
12471;BME280;36499;46.484;13.832;2023-10-19T07:20:23;92057.47;;;8.57;96.11
12471;BME280;36499;46.484;13.832;2023-10-19T07:22:52;92055.69;;;8.77;95.22
12471;BME280;36499;46.484;13.832;2023-10-19T07:25:19;92047.91;;;8.71;95.03
12471;BME280;36499;46.484;13.832;2023-10-19T07:27:47;92041.13;;;8.56;95.53
12471;BME280;36499;46.484;13.832;2023-10-19T07:30:15;92043.72;;;8.63;96.15
12471;BME280;36499;46.484;13.832;2023-10-19T07:32:46;92042.59;;;8.92;96.18
12471;BME280;36499;46.484;13.832;2023-10-19T07:35:17;92042.94;;;8.95;95.16
12471;BME280;36499;46.484;13.832;2023-10-19T07:37:45;92042.38;;;9.00;95.00
12471;BME280;36499;46.484;13.832;2023-10-19T07:40:13;92039.38;;;9.03;95.93
12471;BME280;36499;46.484;13.832;2023-10-19T07:42:40;92033.41;;;9.03;95.52
12471;BME280;36499;46.484;13.832;2023-10-19T07:45:09;92042.59;;;9.25;95.16
12471;BME280;36499;46.484;13.832;2023-10-19T07:47:37;92036.19;;;9.08;95.50
12471;BME280;36499;46.484;13.832;2023-10-19T07:50:06;92039.00;;;8.93;95.23
12471;BME280;36499;46.484;13.832;2023-10-19T07:52:40;92036.19;;;9.01;94.79
12471;BME280;36499;46.484;13.832;2023-10-19T07:55:08;92022.44;;;9.14;95.90
12471;BME280;36499;46.484;13.832;2023-10-19T07:57:34;92024.03;;;9.28;95.49
12471;BME280;36499;46.484;13.832;2023-10-19T08:00:01;92024.63;;;9.17;94.70
12471;BME280;36499;46.484;13.832;2023-10-19T08:02:29;92011.28;;;9.26;94.88
12471;BME280;36499;46.484;13.832;2023-10-19T08:04:56;92016.66;;;9.25;95.65
12471;BME280;36499;46.484;13.832;2023-10-19T08:07:22;92015.25;;;9.29;95.55
12471;BME280;36499;46.484;13.832;2023-10-19T08:09:51;92019.84;;;9.14;96.10
12471;BME280;36499;46.484;13.832;2023-10-19T08:12:20;92029.22;;;9.08;95.81
12471;BME280;36499;46.484;13.832;2023-10-19T08:14:48;92032.00;;;9.20;96.39
12471;BME280;36499;46.484;13.832;2023-10-19T08:17:14;92029.22;;;9.28;95.78
12471;BME280;36499;46.484;13.832;2023-10-19T08:19:42;92022.22;;;9.35;95.95
12471;BME280;36499;46.484;13.832;2023-10-19T08:22:08;92021.66;;;9.26;95.30
12471;BME280;36499;46.484;13.832;2023-10-19T08:24:35;92030.81;;;9.09;96.34
12471;BME280;36499;46.484;13.832;2023-10-19T08:27:02;92025.22;;;9.06;97.17
12471;BME280;36499;46.484;13.832;2023-10-19T08:29:32;92012.06;;;9.14;96.80
12471;BME280;36499;46.484;13.832;2023-10-19T08:32:00;92011.47;;;9.18;96.93
12471;BME280;36499;46.484;13.832;2023-10-19T08:34:27;92015.88;;;9.11;97.15
12471;BME280;36499;46.484;13.832;2023-10-19T08:36:55;92019.44;;;9.17;97.16
12471;BME280;36499;46.484;13.832;2023-10-19T08:39:21;92006.91;;;9.27;97.00
12471;BME280;36499;46.484;13.832;2023-10-19T08:41:49;91999.09;;;9.34;96.89
12471;BME280;36499;46.484;13.832;2023-10-19T08:44:20;92006.25;;;9.45;95.96
12471;BME280;36499;46.484;13.832;2023-10-19T08:46:48;92007.44;;;9.42;96.04
12471;BME280;36499;46.484;13.832;2023-10-19T08:49:15;91993.69;;;9.55;96.50
12471;BME280;36499;46.484;13.832;2023-10-19T08:51:44;91998.84;;;9.61;96.17
12471;BME280;36499;46.484;13.832;2023-10-19T08:54:11;91996.66;;;9.52;95.94
12471;BME280;36499;46.484;13.832;2023-10-19T08:56:38;91987.91;;;9.46;95.77
12471;BME280;36499;46.484;13.832;2023-10-19T08:59:06;91987.31;;;9.51;97.00
12471;BME280;36499;46.484;13.832;2023-10-19T09:01:33;91975.06;;;9.65;96.45
12471;BME280;36499;46.484;13.832;2023-10-19T09:04:01;91973.47;;;9.63;97.65
12471;BME280;36499;46.484;13.832;2023-10-19T09:06:31;91979.50;;;9.57;96.92
12471;BME280;36499;46.484;13.832;2023-10-19T09:08:57;91981.63;;;9.74;97.72
12471;BME280;36499;46.484;13.832;2023-10-19T09:11:24;91973.84;;;9.80;97.15
12471;BME280;36499;46.484;13.832;2023-10-19T09:13:51;91979.59;;;9.89;97.17
12471;BME280;36499;46.484;13.832;2023-10-19T09:16:20;91966.84;;;9.81;97.12
12471;BME280;36499;46.484;13.832;2023-10-19T09:18:47;91964.41;;;9.99;96.68
12471;BME280;36499;46.484;13.832;2023-10-19T09:21:17;91964.38;;;10.06;97.41
12471;BME280;36499;46.484;13.832;2023-10-19T09:23:54;91958.75;;;10.15;96.22
12471;BME280;36499;46.484;13.832;2023-10-19T09:26:22;91955.75;;;10.18;96.36
12471;BME280;36499;46.484;13.832;2023-10-19T09:28:50;91960.97;;;10.12;96.82
12471;BME280;36499;46.484;13.832;2023-10-19T09:31:17;91957.59;;;10.05;96.54
12471;BME280;36499;46.484;13.832;2023-10-19T09:33:47;91944.97;;;10.15;95.74
12471;BME280;36499;46.484;13.832;2023-10-19T09:36:14;91942.34;;;10.21;96.63
12471;BME280;36499;46.484;13.832;2023-10-19T09:38:46;91952.91;;;10.26;95.79
12471;BME280;36499;46.484;13.832;2023-10-19T09:41:17;91941.72;;;10.26;96.18
12471;BME280;36499;46.484;13.832;2023-10-19T09:43:46;91950.22;;;10.40;95.95
12471;BME280;36499;46.484;13.832;2023-10-19T09:46:20;91950.97;;;10.47;95.42
12471;BME280;36499;46.484;13.832;2023-10-19T09:48:48;91944.34;;;10.51;95.49
12471;BME280;36499;46.484;13.832;2023-10-19T09:51:16;91941.75;;;10.51;94.95
12471;BME280;36499;46.484;13.832;2023-10-19T09:53:48;91950.09;;;10.59;94.93
12471;BME280;36499;46.484;13.832;2023-10-19T09:56:20;91950.72;;;10.55;94.57
12471;BME280;36499;46.484;13.832;2023-10-19T09:58:49;91944.03;;;10.41;95.70
12471;BME280;36499;46.484;13.832;2023-10-19T10:01:17;91939.25;;;10.38;95.83
12471;BME280;36499;46.484;13.832;2023-10-19T10:03:48;91934.91;;;10.32;95.57
12471;BME280;36499;46.484;13.832;2023-10-19T10:06:17;91929.53;;;10.58;96.54
12471;BME280;36499;46.484;13.832;2023-10-19T10:08:54;91933.31;;;10.62;96.66
12471;BME280;36499;46.484;13.832;2023-10-19T10:11:23;91926.22;;;10.69;96.38
12471;BME280;36499;46.484;13.832;2023-10-19T10:13:52;91924.00;;;10.73;96.80
12471;BME280;36499;46.484;13.832;2023-10-19T10:16:21;91919.69;;;10.67;97.10
12471;BME280;36499;46.484;13.832;2023-10-19T10:18:50;91911.97;;;10.78;96.79
12471;BME280;36499;46.484;13.832;2023-10-19T10:21:18;91903.53;;;10.83;95.35
12471;BME280;36499;46.484;13.832;2023-10-19T10:23:50;91894.31;;;10.87;96.40
12471;BME280;36499;46.484;13.832;2023-10-19T10:26:21;91886.63;;;10.99;95.47
12471;BME280;36499;46.484;13.832;2023-10-19T10:29:09;91888.63;;;10.97;95.36
12471;BME280;36499;46.484;13.832;2023-10-19T10:31:41;91891.28;;;10.90;95.65
12471;BME280;36499;46.484;13.832;2023-10-19T10:34:08;91876.28;;;10.92;95.82
12471;BME280;36499;46.484;13.832;2023-10-19T10:36:59;91869.94;;;11.06;95.05
12471;BME280;36499;46.484;13.832;2023-10-19T10:39:28;91861.91;;;11.08;95.23
12471;BME280;36499;46.484;13.832;2023-10-19T10:41:57;91872.47;;;11.13;96.54
12471;BME280;36499;46.484;13.832;2023-10-19T10:44:37;91870.75;;;11.25;96.87
12471;BME280;36499;46.484;13.832;2023-10-19T10:47:05;91871.06;;;11.53;96.30
12471;BME280;36499;46.484;13.832;2023-10-19T10:49:46;91887.03;;;11.57;95.65
12471;BME280;36499;46.484;13.832;2023-10-19T10:52:19;91879.44;;;11.55;94.66
12471;BME280;36499;46.484;13.832;2023-10-19T10:54:49;91877.56;;;11.63;94.42
12471;BME280;36499;46.484;13.832;2023-10-19T10:57:18;91870.19;;;11.41;93.71
12471;BME280;36499;46.484;13.832;2023-10-19T10:59:45;91853.88;;;11.52;94.45
12471;BME280;36499;46.484;13.832;2023-10-19T11:02:17;91855.75;;;11.45;95.31
12471;BME280;36499;46.484;13.832;2023-10-19T11:04:43;91855.38;;;11.42;94.94
12471;BME280;36499;46.484;13.832;2023-10-19T11:07:17;91856.69;;;11.51;95.58
12471;BME280;36499;46.484;13.832;2023-10-19T11:09:45;91852.50;;;11.50;95.02
12471;BME280;36499;46.484;13.832;2023-10-19T11:12:12;91844.63;;;11.56;95.50
12471;BME280;36499;46.484;13.832;2023-10-19T11:14:52;91835.00;;;11.57;95.68
12471;BME280;36499;46.484;13.832;2023-10-19T11:17:19;91833.06;;;11.52;95.66
12471;BME280;36499;46.484;13.832;2023-10-19T11:19:49;91834.84;;;11.52;96.61
12471;BME280;36499;46.484;13.832;2023-10-19T11:22:15;91827.47;;;11.67;96.02
12471;BME280;36499;46.484;13.832;2023-10-19T11:24:42;91827.84;;;11.71;96.21
12471;BME280;36499;46.484;13.832;2023-10-19T11:27:08;91820.31;;;11.92;95.22
12471;BME280;36499;46.484;13.832;2023-10-19T11:29:37;91836.03;;;11.86;95.20
12471;BME280;36499;46.484;13.832;2023-10-19T11:32:05;91824.72;;;11.92;95.58
12471;BME280;36499;46.484;13.832;2023-10-19T11:34:32;91823.00;;;11.86;95.20
12471;BME280;36499;46.484;13.832;2023-10-19T11:36:59;91817.22;;;11.84;95.86
12471;BME280;36499;46.484;13.832;2023-10-19T11:39:28;91810.47;;;11.94;95.97
12471;BME280;36499;46.484;13.832;2023-10-19T11:41:55;91799.84;;;12.08;95.96
12471;BME280;36499;46.484;13.832;2023-10-19T11:44:22;91792.97;;;12.13;95.53
12471;BME280;36499;46.484;13.832;2023-10-19T11:46:49;91797.06;;;12.21;95.72
12471;BME280;36499;46.484;13.832;2023-10-19T11:49:17;91791.75;;;12.27;95.31
12471;BME280;36499;46.484;13.832;2023-10-19T11:51:45;91790.53;;;12.30;95.05
12471;BME280;36499;46.484;13.832;2023-10-19T11:54:11;91777.16;;;12.38;94.97
12471;BME280;36499;46.484;13.832;2023-10-19T11:56:38;91782.94;;;12.40;94.99
12471;BME280;36499;46.484;13.832;2023-10-19T11:59:05;91775.91;;;12.41;95.10
12471;BME280;36499;46.484;13.832;2023-10-19T12:01:32;91780.78;;;12.37;94.86
12471;BME280;36499;46.484;13.832;2023-10-19T12:03:59;91774.00;;;12.36;95.33
12471;BME280;36499;46.484;13.832;2023-10-19T12:06:27;91775.91;;;12.41;95.27
12471;BME280;36499;46.484;13.832;2023-10-19T12:08:54;91771.16;;;12.38;95.69
12471;BME280;36499;46.484;13.832;2023-10-19T12:11:24;91780.78;;;12.37;95.68
12471;BME280;36499;46.484;13.832;2023-10-19T12:13:50;91774.44;;;12.45;95.33
12471;BME280;36499;46.484;13.832;2023-10-19T12:16:18;91780.22;;;12.47;94.53
12471;BME280;36499;46.484;13.832;2023-10-19T12:18:49;91783.41;;;12.37;94.73
12471;BME280;36499;46.484;13.832;2023-10-19T12:21:16;91770.34;;;12.49;95.07
12471;BME280;36499;46.484;13.832;2023-10-19T12:23:44;91770.13;;;12.50;95.00
12471;BME280;36499;46.484;13.832;2023-10-19T12:26:16;91767.34;;;12.64;94.96
12471;BME280;36499;46.484;13.832;2023-10-19T12:28:43;91764.28;;;12.67;95.01
12471;BME280;36499;46.484;13.832;2023-10-19T12:31:12;91757.34;;;12.60;95.00
12471;BME280;36499;46.484;13.832;2023-10-19T12:33:40;91755.44;;;12.68;94.76
12471;BME280;36499;46.484;13.832;2023-10-19T12:36:07;91743.09;;;12.75;94.85
12471;BME280;36499;46.484;13.832;2023-10-19T12:38:51;91732.84;;;12.85;94.51
12471;BME280;36499;46.484;13.832;2023-10-19T12:41:19;91742.13;;;13.04;93.64
12471;BME280;36499;46.484;13.832;2023-10-19T12:43:46;91740.22;;;13.00;93.30
12471;BME280;36499;46.484;13.832;2023-10-19T12:46:13;91738.28;;;12.95;93.49
12471;BME280;36499;46.484;13.832;2023-10-19T12:48:41;91745.38;;;13.23;92.89
12471;BME280;36499;46.484;13.832;2023-10-19T12:51:08;91744.19;;;13.02;93.08
12471;BME280;36499;46.484;13.832;2023-10-19T12:53:36;91742.94;;;12.93;93.36
12471;BME280;36499;46.484;13.832;2023-10-19T12:56:05;91747.47;;;12.86;93.97
12471;BME280;36499;46.484;13.832;2023-10-19T12:58:33;91723.22;;;12.85;94.15
12471;BME280;36499;46.484;13.832;2023-10-19T13:01:00;91725.25;;;12.95;94.33
12471;BME280;36499;46.484;13.832;2023-10-19T13:03:30;91733.31;;;12.93;93.97
12471;BME280;36499;46.484;13.832;2023-10-19T13:05:58;91719.47;;;12.93;94.40